In Rescue
 
Open Full Screen Window  High Contrast Mode
Wind Gusting 25 knots
16
May 20, 2019 3:21 PM EDT
Weather Information
Wind Direction
  300 °
Wind Speed
  16 kt (18 mph)
Wind Gust
  25 kt (29 mph)
Altimeter
29.98 in
Visibility
10 SM
Temperature
11° C
52° F
Dewpoint
04° C
39° F
Humidity
62%
Sky Condition
Scattered @ 2,800 ft
VFR

METAR KPZQ 201921Z AUTO 30016G25KT 10SM SCT028 11/04 A2998 RMK AO2 T01070044

FAA Disclaimer: The data displayed is for advisory purposes only and is not to be used for flight planning or operations.